createdAt,value
2018-02-22T00:01:44.231Z,99.90
2018-02-22T00:04:12.496Z,99.90
2018-02-22T00:06:40.012Z,99.90
2018-02-22T00:09:07.940Z,99.90
2018-02-22T00:11:36.207Z,99.90
2018-02-22T00:14:04.452Z,99.90
2018-02-22T00:16:31.946Z,99.90
2018-02-22T00:19:00.222Z,99.90
2018-02-22T00:21:28.474Z,99.90
2018-02-22T00:23:56.289Z,99.90
2018-02-22T00:26:23.779Z,99.90
2018-02-22T00:28:51.276Z,99.90
2018-02-22T00:31:19.843Z,99.90
2018-02-22T00:33:47.319Z,99.90
2018-02-22T00:36:15.556Z,99.90
2018-02-22T00:38:43.373Z,99.90
2018-02-22T00:41:10.851Z,99.90
2018-02-22T00:43:38.349Z,99.90
2018-02-22T00:46:06.252Z,99.90
2018-02-22T00:48:33.735Z,99.90
2018-02-22T00:51:01.214Z,99.90
2018-02-22T00:53:29.015Z,99.90
2018-02-22T00:55:57.265Z,99.90
2018-02-22T00:58:24.751Z,99.90
2018-02-22T01:00:53.324Z,99.90
2018-02-22T01:03:20.812Z,99.90
2018-02-22T01:05:48.296Z,99.90
2018-02-22T01:08:16.130Z,99.90
2018-02-22T01:10:43.638Z,99.90
2018-02-22T01:13:11.176Z,99.90
2018-02-22T01:15:38.999Z,99.90
2018-02-22T01:18:06.555Z,99.90
2018-02-22T01:20:34.812Z,99.90
2018-02-22T01:23:03.405Z,99.90
2018-02-22T01:25:31.648Z,99.90
2018-02-22T01:27:59.295Z,99.90
2018-02-22T01:30:26.799Z,99.90
2018-02-22T01:32:54.272Z,99.90
2018-02-22T01:35:21.790Z,99.90
2018-02-22T01:37:49.688Z,99.90
2018-02-22T01:40:17.948Z,99.90
2018-02-22T01:42:45.451Z,99.90
2018-02-22T01:45:13.231Z,99.90
2018-02-22T01:47:40.701Z,99.90
2018-02-22T01:50:08.199Z,99.90
2018-02-22T01:52:36.544Z,99.90
2018-02-22T01:55:04.056Z,99.90
2018-02-22T01:57:31.544Z,99.90
2018-02-22T01:59:59.706Z,99.90
2018-02-22T02:02:27.191Z,99.90
2018-02-22T02:04:54.688Z,99.90
2018-02-22T02:07:22.583Z,99.90
2018-02-22T02:09:50.215Z,99.90
2018-02-22T02:12:18.504Z,99.90
2018-02-22T02:14:46.358Z,99.90
2018-02-22T02:17:14.596Z,99.90
2018-02-22T02:19:42.085Z,99.90
2018-02-22T02:22:10.763Z,99.90
2018-02-22T02:24:39.065Z,99.90
2018-02-22T02:27:06.561Z,99.90
2018-02-22T02:29:34.328Z,99.90
2018-02-22T02:32:01.824Z,99.90
2018-02-22T02:34:30.060Z,99.90
2018-02-22T02:36:57.887Z,99.90
2018-02-22T02:39:25.403Z,99.90
2018-02-22T02:41:52.892Z,99.90
2018-02-22T02:44:21.476Z,99.90
2018-02-22T02:46:48.980Z,99.90
2018-02-22T02:49:16.518Z,99.90
2018-02-22T02:51:44.359Z,99.90
2018-02-22T02:54:12.645Z,99.90
2018-02-22T02:56:40.182Z,99.90
2018-02-22T02:59:08.431Z,99.90
2018-02-22T03:01:35.924Z,99.90
2018-02-22T03:04:04.188Z,99.90
2018-02-22T03:06:31.952Z,99.90
2018-02-22T03:09:00.189Z,99.90
2018-02-22T03:11:27.715Z,99.90
2018-02-22T03:13:55.551Z,99.90
2018-02-22T03:16:23.897Z,99.90
2018-02-22T03:18:51.544Z,99.90
2018-02-22T03:21:19.468Z,99.90
2018-02-22T03:23:46.979Z,99.90
2018-02-22T03:26:14.459Z,99.90
2018-02-22T03:28:43.146Z,99.90
2018-02-22T03:31:11.442Z,99.90
2018-02-22T03:33:38.932Z,99.90
2018-02-22T03:36:06.759Z,99.90
2018-02-22T03:38:35.027Z,99.90
2018-02-22T03:41:03.289Z,99.90
2018-02-22T03:43:30.787Z,99.90
2018-02-22T03:45:58.263Z,99.90
2018-02-22T03:48:25.755Z,99.90
2018-02-22T03:50:53.697Z,99.90
2018-02-22T03:53:21.194Z,99.90
2018-02-22T03:55:48.667Z,99.90
2018-02-22T03:58:17.357Z,99.90
2018-02-22T04:00:44.831Z,99.90
2018-02-22T04:03:12.316Z,99.90
2018-02-22T04:05:40.246Z,99.90
2018-02-22T04:08:07.746Z,99.90
2018-02-22T04:10:35.243Z,99.90
2018-02-22T04:13:03.852Z,99.90
2018-02-22T04:15:31.345Z,99.90
2018-02-22T04:17:58.891Z,99.90
2018-02-22T04:20:26.723Z,99.90
2018-02-22T04:22:54.981Z,99.90
2018-02-22T04:25:23.236Z,99.90
2018-02-22T04:27:50.763Z,99.90
2018-02-22T04:30:18.249Z,99.90
2018-02-22T04:32:45.783Z,99.90
2018-02-22T04:35:13.715Z,99.90
2018-02-22T04:37:41.301Z,99.90
2018-02-22T04:40:08.805Z,99.90
2018-02-22T04:42:36.687Z,99.90
2018-02-22T04:45:04.943Z,99.90
2018-02-22T04:47:32.456Z,99.90
2018-02-22T04:50:01.109Z,99.90
2018-02-22T04:52:29.381Z,99.90
2018-02-22T04:54:57.640Z,99.90
2018-02-22T04:57:26.240Z,99.90
2018-02-22T04:59:54.480Z,99.90
2018-02-22T05:02:23.619Z,99.90
2018-02-22T05:04:52.191Z,99.90
2018-02-22T05:07:20.439Z,99.90
2018-02-22T05:09:47.928Z,99.90
2018-02-22T05:12:16.451Z,99.90
2018-02-22T05:14:43.955Z,99.90
2018-02-22T05:17:12.278Z,99.90
2018-02-22T05:19:40.115Z,99.90
2018-02-22T05:22:07.595Z,99.90
2018-02-22T05:24:35.086Z,99.90
2018-02-22T05:27:02.588Z,99.90
2018-02-22T05:29:30.841Z,99.90
2018-02-22T05:31:58.336Z,99.90
2018-02-22T05:34:26.182Z,99.90
2018-02-22T05:36:54.494Z,99.90
2018-02-22T05:39:22.031Z,99.90
2018-02-22T05:41:49.900Z,99.90
2018-02-22T05:44:17.386Z,99.90
2018-02-22T05:46:44.887Z,99.90
2018-02-22T05:49:12.404Z,99.90
2018-02-22T05:51:39.912Z,99.90
2018-02-22T05:54:08.173Z,99.90
2018-02-22T05:56:35.956Z,99.90
2018-02-22T05:59:04.249Z,99.90
2018-02-22T06:01:31.784Z,99.90
2018-02-22T06:04:00.410Z,99.90
2018-02-22T06:06:27.882Z,99.90
2018-02-22T06:08:55.392Z,99.90
2018-02-22T06:11:23.982Z,99.90
2018-02-22T06:13:51.486Z,99.90
2018-02-22T06:16:19.025Z,99.90
2018-02-22T06:18:46.961Z,99.90
2018-02-22T06:21:15.243Z,99.90
2018-02-22T06:23:42.797Z,99.90
2018-02-22T06:26:11.402Z,99.90
2018-02-22T06:28:38.893Z,99.90
2018-02-22T06:31:07.192Z,99.90
2018-02-22T06:33:35.079Z,99.90
2018-02-22T06:36:03.348Z,99.90
2018-02-22T06:38:30.861Z,99.90
2018-02-22T06:40:58.667Z,99.90
2018-02-22T06:43:26.942Z,99.90
2018-02-22T06:45:54.452Z,99.90
2018-02-22T06:48:22.380Z,99.90
2018-02-22T06:50:49.893Z,99.90
2018-02-22T06:53:18.203Z,99.90
2018-02-22T06:55:46.779Z,99.90
2018-02-22T06:58:14.324Z,99.90
2018-02-22T07:00:41.806Z,99.90
2018-02-22T07:03:10.067Z,99.90
2018-02-22T07:05:37.551Z,99.90
2018-02-22T07:08:05.801Z,99.90
2018-02-22T07:10:33.302Z,99.90
2018-02-22T07:13:00.830Z,99.90
2018-02-22T07:15:28.355Z,99.90
2018-02-22T07:17:56.368Z,99.90
2018-02-22T07:20:23.861Z,99.90
2018-02-22T07:22:51.379Z,99.90
2018-02-22T07:25:20.063Z,99.90
2018-02-22T07:27:48.395Z,99.90
2018-02-22T07:30:16.059Z,99.90
2018-02-22T07:32:43.823Z,99.90
2018-02-22T07:35:11.292Z,99.90
2018-02-22T07:37:38.785Z,99.90
2018-02-22T07:40:07.369Z,99.90
2018-02-22T07:42:35.637Z,99.90
2018-02-22T07:45:03.880Z,99.90
2018-02-22T07:47:31.675Z,99.90
2018-02-22T07:49:59.915Z,99.90
2018-02-22T07:52:27.392Z,99.90
2018-02-22T07:54:55.202Z,99.90
2018-02-22T07:57:22.680Z,99.90
2018-02-22T07:59:50.162Z,99.90
2018-02-22T08:02:17.684Z,99.90
2018-02-22T08:04:45.160Z,99.90
2018-02-22T08:07:12.643Z,99.90
2018-02-22T08:09:41.240Z,99.90
2018-02-22T08:12:08.746Z,99.90
2018-02-22T08:14:36.223Z,99.90
2018-02-22T08:17:03.734Z,99.90
2018-02-22T08:22:04.420Z,99.90
2018-02-22T08:24:31.920Z,99.90
2018-02-22T08:27:00.187Z,99.90
2018-02-22T08:29:28.445Z,99.90
2018-02-22T08:31:55.968Z,99.90
2018-02-22T08:34:23.463Z,99.90
2018-02-22T08:36:50.992Z,99.90
2018-02-22T08:39:18.505Z,99.90
2018-02-22T08:41:46.003Z,99.90
2018-02-22T08:44:13.908Z,99.90
2018-02-22T08:46:41.387Z,99.90
2018-02-22T08:49:09.690Z,99.90
2018-02-22T08:51:37.524Z,99.90
2018-02-22T08:54:05.768Z,99.90
2018-02-22T08:56:33.345Z,99.90
2018-02-22T08:59:01.124Z,99.90
2018-02-22T09:01:28.726Z,99.90
2018-02-22T09:03:56.224Z,99.90
2018-02-22T09:06:24.020Z,99.90
2018-02-22T09:08:52.276Z,99.90
2018-02-22T09:11:19.770Z,99.90
2018-02-22T09:13:47.275Z,99.90
2018-02-22T09:16:14.810Z,99.90
2018-02-22T09:18:42.320Z,99.90
2018-02-22T09:21:09.824Z,99.90
2018-02-22T09:23:37.358Z,99.60
2018-02-22T09:26:04.903Z,96.60
2018-02-22T09:28:32.483Z,94.90
2018-02-22T09:30:59.987Z,94.30
2018-02-22T09:33:28.249Z,92.00
2018-02-22T09:35:55.743Z,91.90
2018-02-22T09:38:23.228Z,95.10
2018-02-22T09:40:50.757Z,92.80
2018-02-22T09:43:18.306Z,91.10
2018-02-22T09:45:45.796Z,89.00
2018-02-22T09:48:13.283Z,90.10
2018-02-22T09:50:40.784Z,91.70
2018-02-22T09:53:08.290Z,92.60
2018-02-22T09:55:35.792Z,92.10
2018-02-22T09:58:03.285Z,91.00
2018-02-22T10:00:30.835Z,88.50
2018-02-22T10:02:59.092Z,85.20
2018-02-22T10:05:27.358Z,90.00
2018-02-22T10:07:54.844Z,89.90
2018-02-22T10:10:22.330Z,90.90
2018-02-22T10:12:49.875Z,88.10
2018-02-22T10:15:17.316Z,88.70
2018-02-22T10:17:44.810Z,89.50
2018-02-22T10:20:12.323Z,85.70
2018-02-22T10:22:40.595Z,81.00
2018-02-22T10:25:08.880Z,79.90
2018-02-22T10:27:37.188Z,81.40
2018-02-22T10:30:04.711Z,81.40
2018-02-22T10:32:33.041Z,83.80
2018-02-22T10:35:00.872Z,83.90
2018-02-22T10:37:28.413Z,79.80
2018-02-22T10:39:56.664Z,74.90
2018-02-22T10:42:24.554Z,74.80
2018-02-22T10:44:52.864Z,77.50
2018-02-22T10:47:20.348Z,77.40
2018-02-22T10:49:48.271Z,81.20
2018-02-22T10:52:15.779Z,79.20
2018-02-22T10:54:43.277Z,76.50
2018-02-22T10:57:11.550Z,77.70
2018-02-22T10:59:39.827Z,75.10
2018-02-22T11:02:13.745Z,78.20
2018-02-22T11:04:41.254Z,78.20
2018-02-22T11:07:08.760Z,77.40
2018-02-22T11:09:36.257Z,78.50
2018-02-22T11:12:03.799Z,78.20
2018-02-22T11:14:31.340Z,78.00
2018-02-22T11:16:59.185Z,75.90
2018-02-22T11:19:27.452Z,81.60
2018-02-22T11:21:54.928Z,81.50
2018-02-22T11:24:23.495Z,81.50
2018-02-22T11:26:51.818Z,83.20
2018-02-22T11:29:19.285Z,83.10
2018-02-22T11:31:46.888Z,81.40
2018-02-22T11:34:15.171Z,83.80
2018-02-22T11:36:43.439Z,82.80
2018-02-22T11:39:11.784Z,81.30
2018-02-22T11:41:39.299Z,81.20
2018-02-22T11:44:06.798Z,78.40
2018-02-22T11:46:34.312Z,79.50
2018-02-22T11:49:01.861Z,81.20
2018-02-22T11:51:29.356Z,81.80
2018-02-22T11:53:56.868Z,76.80
2018-02-22T11:56:25.140Z,78.10
2018-02-22T11:58:53.449Z,82.60
2018-02-22T12:01:20.941Z,82.60
2018-02-22T12:03:48.552Z,77.40
2018-02-22T12:06:16.812Z,84.30
2018-02-22T12:08:44.320Z,84.30
2018-02-22T12:11:11.868Z,81.40
2018-02-22T12:13:39.361Z,85.20
2018-02-22T12:16:07.156Z,84.10
2018-02-22T12:18:35.427Z,88.20
2018-02-22T12:21:03.700Z,85.20
2018-02-22T12:23:32.301Z,85.20
2018-02-22T12:26:00.543Z,85.10
2018-02-22T12:28:28.060Z,85.00
2018-02-22T12:30:55.909Z,86.20
2018-02-22T12:33:23.432Z,84.80
2018-02-22T12:35:51.030Z,87.70
2018-02-22T12:38:18.512Z,90.90
2018-02-22T12:40:46.008Z,92.30
2018-02-22T12:43:13.485Z,94.60
2018-02-22T12:45:42.222Z,97.60
2018-02-22T12:48:09.770Z,97.70
2018-02-22T12:50:37.272Z,99.50
2018-02-22T12:53:05.545Z,97.80
2018-02-22T12:55:33.036Z,97.70
2018-02-22T12:58:00.522Z,99.90
2018-02-22T13:00:28.303Z,97.50
2018-02-22T13:02:55.774Z,99.10
2018-02-22T13:05:23.266Z,98.10
2018-02-22T13:07:50.949Z,99.90
2018-02-22T13:10:18.411Z,99.90
2018-02-22T13:12:45.896Z,98.10
2018-02-22T13:15:13.372Z,99.90
2018-02-22T13:17:40.860Z,97.40
2018-02-22T13:20:08.357Z,99.20
2018-02-22T13:22:36.335Z,99.60
2018-02-22T13:25:03.834Z,98.90
2018-02-22T13:27:32.081Z,99.90
2018-02-22T13:29:59.648Z,99.90
2018-02-22T13:32:27.154Z,98.30
2018-02-22T13:34:54.669Z,99.90
2018-02-22T13:51:01.142Z,99.90
2018-02-22T13:53:29.389Z,99.90
2018-02-22T13:55:56.910Z,99.90
2018-02-22T13:58:24.538Z,99.90
2018-02-22T14:01:04.710Z,99.90
2018-02-22T14:03:32.212Z,99.90
2018-02-22T14:05:59.704Z,99.90
2018-02-22T14:08:39.128Z,99.90
2018-02-22T14:11:07.377Z,99.90
2018-02-22T14:13:34.871Z,99.90
2018-02-22T14:16:03.553Z,99.90
2018-02-22T14:18:31.800Z,99.90
2018-02-22T14:20:59.294Z,99.90
2018-02-22T14:23:26.804Z,99.90
2018-02-22T14:25:54.331Z,99.90
2018-02-22T14:28:21.827Z,99.90
2018-02-22T14:30:49.298Z,99.90
2018-02-22T14:33:16.795Z,99.90
2018-02-22T14:35:44.288Z,99.90
2018-02-22T14:38:12.112Z,99.90
2018-02-22T14:40:39.752Z,99.90
2018-02-22T14:43:07.200Z,99.90
2018-02-22T14:45:34.707Z,99.90
2018-02-22T14:48:02.244Z,99.90
2018-02-22T14:50:29.724Z,99.90
2018-02-22T14:52:57.244Z,99.90
2018-02-22T14:55:25.499Z,99.90
2018-02-22T14:57:53.753Z,99.90
2018-02-22T15:00:21.561Z,99.90
2018-02-22T15:02:49.849Z,99.90
2018-02-22T15:05:18.138Z,99.90
2018-02-22T15:07:45.890Z,99.90
2018-02-22T15:10:13.388Z,99.90
2018-02-22T15:12:40.872Z,99.90
2018-02-22T15:15:08.372Z,99.90
2018-02-22T15:17:36.189Z,99.90
2018-02-22T15:20:03.668Z,99.90
2018-02-22T15:22:31.529Z,99.90
2018-02-22T15:24:59.050Z,99.90
2018-02-22T15:27:26.545Z,99.90
2018-02-22T15:29:54.844Z,99.90
2018-02-22T15:32:22.348Z,99.90
2018-02-22T15:34:49.886Z,99.90
2018-02-22T15:37:17.617Z,99.90
2018-02-22T15:39:45.900Z,99.90
2018-02-22T15:42:13.391Z,99.90
2018-02-22T15:44:41.206Z,99.90
2018-02-22T15:47:09.522Z,99.90
2018-02-22T15:49:36.983Z,99.90
2018-02-22T15:52:04.495Z,99.90
2018-02-22T15:54:32.775Z,99.90
2018-02-22T15:57:00.274Z,99.90
2018-02-22T15:59:28.054Z,99.90
2018-02-22T16:01:55.525Z,99.90
2018-02-22T16:04:23.049Z,99.90
2018-02-22T16:06:50.883Z,99.90
2018-02-22T16:09:19.120Z,99.90
2018-02-22T16:11:46.652Z,99.90
2018-02-22T16:14:14.464Z,99.90
2018-02-22T16:16:42.008Z,99.90
2018-02-22T16:19:09.574Z,99.90
2018-02-22T16:21:37.361Z,99.90
2018-02-22T16:24:05.824Z,99.90
2018-02-22T16:26:34.089Z,99.90
2018-02-22T16:29:01.974Z,99.90
2018-02-22T16:31:29.461Z,99.90
2018-02-22T16:33:56.982Z,99.90
2018-02-22T16:36:24.745Z,99.90
2018-02-22T16:38:52.240Z,99.90
2018-02-22T16:41:19.725Z,99.90
2018-02-22T16:43:47.232Z,99.90
2018-02-22T16:46:15.485Z,99.90
2018-02-22T16:48:42.987Z,99.90
2018-02-22T16:51:10.835Z,99.90
2018-02-22T16:53:39.116Z,99.90
2018-02-22T16:56:06.607Z,99.90
2018-02-22T16:58:34.122Z,99.90
2018-02-22T17:01:02.417Z,99.90
2018-02-22T17:03:29.894Z,99.90
2018-02-22T17:05:57.727Z,99.90
2018-02-22T17:08:25.985Z,99.90
2018-02-22T17:10:54.242Z,99.90
2018-02-22T17:13:22.049Z,99.90
2018-02-22T17:15:50.304Z,99.90
2018-02-22T17:18:18.570Z,99.90
2018-02-22T17:20:46.405Z,99.90
2018-02-22T17:23:13.889Z,99.90
2018-02-22T17:25:46.968Z,99.90
2018-02-22T17:28:20.225Z,99.90
2018-02-22T17:30:53.393Z,99.90
2018-02-22T17:33:21.691Z,99.90
2018-02-22T17:36:01.145Z,99.90
2018-02-22T17:38:29.510Z,99.90
2018-02-22T17:41:13.908Z,99.90
2018-02-22T17:43:41.381Z,99.90
2018-02-22T17:46:09.750Z,99.90
2018-02-22T17:48:37.524Z,99.90
2018-02-22T17:51:05.792Z,99.90
2018-02-22T17:53:33.318Z,99.90
2018-02-22T17:56:01.087Z,99.90
2018-02-22T17:58:28.570Z,99.90
2018-02-22T18:00:56.944Z,99.90
2018-02-22T18:03:24.700Z,99.90
2018-02-22T18:05:52.203Z,99.90
2018-02-22T18:08:19.681Z,99.90
2018-02-22T18:10:47.468Z,99.90
2018-02-22T18:13:15.001Z,99.90
2018-02-22T18:15:42.491Z,99.90
2018-02-22T18:18:10.325Z,99.90
2018-02-22T18:20:37.830Z,99.90
2018-02-22T18:23:05.334Z,99.90
2018-02-22T18:25:33.180Z,99.90
2018-02-22T18:28:00.678Z,99.90
2018-02-22T18:30:28.164Z,99.90
2018-02-22T18:32:55.655Z,99.90
2018-02-22T18:35:23.241Z,99.90
2018-02-22T18:37:56.732Z,99.90
2018-02-22T18:40:29.795Z,99.90
2018-02-22T18:42:58.417Z,99.90
2018-02-22T18:45:25.956Z,99.90
2018-02-22T18:47:54.200Z,99.90
2018-02-22T18:50:21.959Z,99.90
2018-02-22T18:52:49.458Z,99.90
2018-02-22T18:55:17.025Z,99.90
2018-02-22T18:57:44.509Z,99.90
2018-02-22T19:00:11.987Z,99.90
2018-02-22T19:02:39.511Z,99.90
2018-02-22T19:05:07.036Z,99.90
2018-02-22T19:07:34.516Z,99.90
2018-02-22T19:10:02.007Z,99.90
2018-02-22T19:12:29.510Z,99.90
2018-02-22T19:14:57.020Z,99.90
2018-02-22T19:17:24.498Z,99.90
2018-02-22T19:19:52.164Z,99.90
2018-02-22T19:22:20.432Z,99.90
2018-02-22T19:24:47.903Z,99.90
2018-02-22T19:27:16.204Z,99.90
2018-02-22T19:29:43.689Z,99.90
2018-02-22T19:32:11.226Z,99.90
2018-02-22T19:34:38.672Z,99.90
2018-02-22T19:37:06.228Z,99.90
2018-02-22T19:39:33.741Z,99.90
2018-02-22T19:42:01.556Z,99.90
2018-02-22T19:44:29.147Z,99.90
2018-02-22T19:46:56.627Z,99.90
2018-02-22T19:49:24.977Z,99.90
2018-02-22T19:51:52.566Z,99.90
2018-02-22T19:54:20.040Z,99.90
2018-02-22T19:56:48.636Z,99.90
2018-02-22T19:59:16.130Z,99.90
2018-02-22T20:01:43.620Z,99.90
2018-02-22T20:04:11.417Z,99.90
2018-02-22T20:06:39.688Z,99.90
2018-02-22T20:09:07.948Z,99.90
2018-02-22T20:11:35.793Z,99.90
2018-02-22T20:14:03.296Z,99.90
2018-02-22T20:16:30.784Z,99.90
2018-02-22T20:18:58.617Z,99.90
2018-02-22T20:21:26.138Z,99.90
2018-02-22T20:23:53.760Z,99.90
2018-02-22T20:26:21.631Z,99.90
2018-02-22T20:28:49.168Z,99.90
2018-02-22T20:31:16.654Z,99.90
2018-02-22T20:33:44.173Z,99.90
2018-02-22T20:36:11.658Z,99.90
2018-02-22T20:38:39.159Z,99.90
2018-02-22T20:41:06.669Z,99.90
2018-02-22T20:43:34.281Z,99.90
2018-02-22T20:46:01.769Z,99.90
2018-02-22T20:48:29.257Z,99.90
2018-02-22T20:51:08.561Z,99.90
2018-02-22T20:53:36.498Z,99.90
2018-02-22T20:56:03.983Z,99.90
2018-02-22T20:58:33.315Z,99.90
2018-02-22T21:01:00.843Z,99.90
2018-02-22T21:03:28.344Z,99.90
2018-02-22T21:05:55.823Z,99.90
2018-02-22T21:08:23.316Z,99.90
2018-02-22T21:10:50.901Z,99.90
2018-02-22T21:13:18.390Z,99.90
2018-02-22T21:15:45.896Z,99.90
2018-02-22T21:18:13.396Z,99.90
2018-02-22T21:20:40.898Z,99.90
2018-02-22T21:23:08.410Z,99.90
2018-02-22T21:25:35.888Z,99.90
2018-02-22T21:28:03.372Z,99.90
2018-02-22T21:30:31.134Z,99.90
2018-02-22T21:32:59.411Z,99.90
2018-02-22T21:35:27.648Z,99.90
2018-02-22T21:37:55.450Z,99.90
2018-02-22T21:40:22.977Z,99.90
2018-02-22T21:42:50.480Z,99.90
2018-02-22T21:45:17.977Z,99.90
2018-02-22T21:47:45.487Z,99.90
2018-02-22T21:50:12.967Z,99.90
2018-02-22T21:52:40.475Z,99.90
2018-02-22T21:55:07.965Z,99.90
2018-02-22T21:57:36.206Z,99.90
2018-02-22T22:00:04.089Z,99.90
2018-02-22T22:02:31.700Z,99.90
2018-02-22T22:04:59.192Z,99.90
2018-02-22T22:07:26.680Z,99.90
2018-02-22T22:09:54.218Z,99.90
2018-02-22T22:12:22.489Z,99.90
2018-02-22T22:14:50.268Z,99.90
2018-02-22T22:17:18.524Z,99.90
2018-02-22T22:19:46.856Z,99.90
2018-02-22T22:22:14.673Z,99.90
2018-02-22T22:24:42.967Z,99.90
2018-02-22T22:27:11.304Z,99.90
2018-02-22T22:29:39.104Z,99.90
2018-02-22T22:32:07.368Z,99.90
2018-02-22T22:34:35.652Z,99.90
2018-02-22T22:37:03.935Z,99.90
2018-02-22T22:39:32.184Z,99.90
2018-02-22T22:41:59.668Z,99.90
2018-02-22T22:44:28.252Z,99.90
2018-02-22T22:46:55.748Z,99.90
2018-02-22T22:49:23.221Z,99.90
2018-02-22T22:51:50.749Z,99.90
2018-02-22T22:54:18.256Z,99.90
2018-02-22T22:56:45.752Z,99.90
2018-02-22T22:59:13.613Z,99.90
2018-02-22T23:01:41.116Z,99.90
2018-02-22T23:04:08.604Z,99.90
2018-02-22T23:06:37.195Z,99.90
2018-02-22T23:09:05.476Z,99.90
2018-02-22T23:11:33.720Z,99.90
2018-02-22T23:14:01.307Z,99.90
2018-02-22T23:16:28.806Z,99.90
2018-02-22T23:18:56.353Z,99.90
2018-02-22T23:21:24.178Z,99.90
2018-02-22T23:23:52.446Z,99.90
2018-02-22T23:26:19.943Z,99.90
2018-02-22T23:28:47.788Z,99.90
2018-02-22T23:31:16.049Z,99.90
2018-02-22T23:33:43.523Z,99.90
2018-02-22T23:36:12.215Z,99.90
2018-02-22T23:38:40.467Z,99.90
2018-02-22T23:41:10.687Z,99.90
2018-02-22T23:43:38.193Z,99.90
2018-02-22T23:46:05.692Z,99.90
2018-02-22T23:48:33.192Z,99.90
2018-02-22T23:51:01.043Z,99.90
2018-02-22T23:53:29.316Z,99.90
2018-02-22T23:55:56.823Z,99.90
2018-02-22T23:58:24.854Z,99.90
